sensor_id;sensor_type;location;lat;lon;timestamp;pressure;altitude;pressure_sealevel;temperature;humidity
52319;BME280;38258;51.148;14.068;2023-02-01T00:01:43;98013.41;;;2.03;100.00
52319;BME280;38258;51.148;14.068;2023-02-01T00:04:10;97915.44;;;1.45;100.00
52319;BME280;38258;51.148;14.068;2023-02-01T00:06:37;97973.84;;;1.79;100.00
52319;BME280;38258;51.148;14.068;2023-02-01T00:09:03;97985.03;;;1.78;100.00
52319;BME280;38258;51.148;14.068;2023-02-01T00:11:30;98049.53;;;2.15;100.00
52319;BME280;38258;51.148;14.068;2023-02-01T00:13:57;98021.16;;;1.93;100.00
52319;BME280;38258;51.148;14.068;2023-02-01T00:16:26;98040.09;;;2.11;100.00
52319;BME280;38258;51.148;14.068;2023-02-01T00:18:58;98049.53;;;2.18;100.00
52319;BME280;38258;51.148;14.068;2023-02-01T00:21:26;97900.78;;;1.25;100.00
52319;BME280;38258;51.148;14.068;2023-02-01T00:23:53;98055.56;;;2.11;100.00
52319;BME280;38258;51.148;14.068;2023-02-01T00:26:23;97985.91;;;1.60;100.00
52319;BME280;38258;51.148;14.068;2023-02-01T00:28:51;97977.28;;;1.56;100.00
52319;BME280;38258;51.148;14.068;2023-02-01T00:31:18;97902.47;;;1.06;100.00
52319;BME280;38258;51.148;14.068;2023-02-01T00:33:46;98000.53;;;1.73;100.00
52319;BME280;38258;51.148;14.068;2023-02-01T00:36:16;97900.78;;;1.11;100.00
52319;BME280;38258;51.148;14.068;2023-02-01T00:38:44;98034.03;;;1.90;100.00
52319;BME280;38258;51.148;14.068;2023-02-01T00:41:13;97887.06;;;1.12;100.00
52319;BME280;38258;51.148;14.068;2023-02-01T00:43:40;98064.16;;;2.15;100.00
52319;BME280;38258;51.148;14.068;2023-02-01T00:46:08;97954.94;;;1.58;100.00
52319;BME280;38258;51.148;14.068;2023-02-01T00:48:35;97943.78;;;1.37;100.00
52319;BME280;38258;51.148;14.068;2023-02-01T00:51:03;98067.63;;;2.20;100.00
52319;BME280;38258;51.148;14.068;2023-02-01T00:53:31;97999.66;;;1.73;100.00
52319;BME280;38258;51.148;14.068;2023-02-01T00:55:58;98067.59;;;2.21;100.00
52319;BME280;38258;51.148;14.068;2023-02-01T00:58:25;98053.84;;;2.13;100.00
52319;BME280;38258;51.148;14.068;2023-02-01T01:01:01;98006.53;;;1.78;100.00
52319;BME280;38258;51.148;14.068;2023-02-01T01:03:28;97972.16;;;1.61;100.00
52319;BME280;38258;51.148;14.068;2023-02-01T01:05:59;98055.56;;;2.25;100.00
52319;BME280;38258;51.148;14.068;2023-02-01T01:08:26;98017.72;;;1.99;100.00
52319;BME280;38258;51.148;14.068;2023-02-01T01:10:55;97973.00;;;1.64;100.00
52319;BME280;38258;51.148;14.068;2023-02-01T01:13:22;97952.34;;;1.43;100.00
52319;BME280;38258;51.148;14.068;2023-02-01T01:15:49;97991.06;;;1.83;100.00
52319;BME280;38258;51.148;14.068;2023-02-01T01:18:16;97997.09;;;1.74;100.00
52319;BME280;38258;51.148;14.068;2023-02-01T01:20:42;98011.69;;;1.86;100.00
52319;BME280;38258;51.148;14.068;2023-02-01T01:23:09;98064.19;;;2.18;100.00
52319;BME280;38258;51.148;14.068;2023-02-01T01:25:37;98004.84;;;1.90;100.00
52319;BME280;38258;51.148;14.068;2023-02-01T01:28:06;97964.41;;;1.64;100.00
52319;BME280;38258;51.148;14.068;2023-02-01T01:30:34;98053.84;;;2.19;100.00
52319;BME280;38258;51.148;14.068;2023-02-01T01:33:01;97958.38;;;1.63;100.00
52319;BME280;38258;51.148;14.068;2023-02-01T01:35:29;98059.84;;;2.21;100.00
52319;BME280;38258;51.148;14.068;2023-02-01T01:37:56;97928.28;;;1.39;100.00
52319;BME280;38258;51.148;14.068;2023-02-01T01:40:23;97922.28;;;1.40;100.00
52319;BME280;38258;51.148;14.068;2023-02-01T01:42:50;98000.53;;;1.81;100.00
52319;BME280;38258;51.148;14.068;2023-02-01T01:45:24;97981.59;;;1.69;100.00
52319;BME280;38258;51.148;14.068;2023-02-01T01:47:53;98039.22;;;2.12;100.00
52319;BME280;38258;51.148;14.068;2023-02-01T01:50:25;97886.19;;;1.20;100.00
52319;BME280;38258;51.148;14.068;2023-02-01T01:52:55;97858.69;;;1.00;100.00
52319;BME280;38258;51.148;14.068;2023-02-01T01:55:24;98028.06;;;1.94;100.00
52319;BME280;38258;51.148;14.068;2023-02-01T01:57:56;98000.53;;;1.87;100.00
52319;BME280;38258;51.148;14.068;2023-02-01T02:00:25;98005.66;;;1.82;100.00
52319;BME280;38258;51.148;14.068;2023-02-01T02:02:57;97891.34;;;1.13;100.00
52319;BME280;38258;51.148;14.068;2023-02-01T02:05:25;97931.75;;;1.43;100.00
52319;BME280;38258;51.148;14.068;2023-02-01T02:07:57;98050.38;;;2.08;100.00
52319;BME280;38258;51.148;14.068;2023-02-01T02:10:25;97925.72;;;1.34;100.00
52319;BME280;38258;51.148;14.068;2023-02-01T02:13:14;97959.25;;;1.53;100.00
52319;BME280;38258;51.148;14.068;2023-02-01T02:15:48;97932.59;;;1.38;100.00
52319;BME280;38258;51.148;14.068;2023-02-01T02:18:21;97856.97;;;1.02;100.00
52319;BME280;38258;51.148;14.068;2023-02-01T02:21:09;98036.66;;;2.04;100.00
52319;BME280;38258;51.148;14.068;2023-02-01T02:23:52;97979.00;;;1.71;100.00
52319;BME280;38258;51.148;14.068;2023-02-01T02:26:52;98043.50;;;2.11;100.00
52319;BME280;38258;51.148;14.068;2023-02-01T02:29:50;98035.78;;;2.11;100.00
52319;BME280;38258;51.148;14.068;2023-02-01T02:32:52;97987.63;;;1.86;100.00
52319;BME280;38258;51.148;14.068;2023-02-01T02:35:30;98039.22;;;2.10;100.00
52319;BME280;38258;51.148;14.068;2023-02-01T02:38:03;98008.25;;;1.90;100.00
52319;BME280;38258;51.148;14.068;2023-02-01T02:40:35;98032.34;;;2.12;100.00
52319;BME280;38258;51.148;14.068;2023-02-01T02:43:09;98034.94;;;2.19;100.00
52319;BME280;38258;51.148;14.068;2023-02-01T02:46:00;98025.47;;;2.18;100.00
52319;BME280;38258;51.148;14.068;2023-02-01T02:49:00;98023.75;;;2.09;100.00
52319;BME280;38258;51.148;14.068;2023-02-01T02:51:32;97987.63;;;1.90;100.00
52319;BME280;38258;51.148;14.068;2023-02-01T02:54:21;98020.28;;;2.16;100.00
52319;BME280;38258;51.148;14.068;2023-02-01T02:57:09;98029.75;;;2.12;100.00
52319;BME280;38258;51.148;14.068;2023-02-01T02:59:58;98007.41;;;2.04;100.00
52319;BME280;38258;51.148;14.068;2023-02-01T03:02:45;98027.16;;;2.05;100.00
52319;BME280;38258;51.148;14.068;2023-02-01T03:05:34;98010.81;;;1.93;100.00
52319;BME280;38258;51.148;14.068;2023-02-01T03:08:11;97977.31;;;1.75;100.00
52319;BME280;38258;51.148;14.068;2023-02-01T03:10:43;98014.28;;;1.94;100.00
52319;BME280;38258;51.148;14.068;2023-02-01T03:13:15;98037.50;;;1.94;100.00
52319;BME280;38258;51.148;14.068;2023-02-01T03:15:49;98032.34;;;2.05;100.00
52319;BME280;38258;51.148;14.068;2023-02-01T03:18:20;98035.78;;;2.01;100.00
52319;BME280;38258;51.148;14.068;2023-02-01T03:20:50;98049.53;;;2.03;100.00
52319;BME280;38258;51.148;14.068;2023-02-01T03:23:22;97991.94;;;1.82;100.00
52319;BME280;38258;51.148;14.068;2023-02-01T03:25:52;98026.31;;;1.90;100.00
52319;BME280;38258;51.148;14.068;2023-02-01T03:28:23;98044.38;;;2.06;100.00
52319;BME280;38258;51.148;14.068;2023-02-01T03:30:52;98032.34;;;2.09;100.00
52319;BME280;38258;51.148;14.068;2023-02-01T03:33:21;98041.81;;;2.09;100.00
52319;BME280;38258;51.148;14.068;2023-02-01T03:35:55;98023.75;;;2.07;100.00
52319;BME280;38258;51.148;14.068;2023-02-01T03:38:29;98025.47;;;2.13;100.00
52319;BME280;38258;51.148;14.068;2023-02-01T03:41:03;98035.78;;;2.18;100.00
52319;BME280;38258;51.148;14.068;2023-02-01T03:43:42;98014.28;;;2.09;100.00
52319;BME280;38258;51.148;14.068;2023-02-01T03:46:16;98034.06;;;2.17;100.00
52319;BME280;38258;51.148;14.068;2023-02-01T03:48:45;98024.59;;;2.14;100.00
52319;BME280;38258;51.148;14.068;2023-02-01T03:51:13;97983.31;;;1.86;100.00
52319;BME280;38258;51.148;14.068;2023-02-01T03:53:42;97987.63;;;1.93;100.00
52319;BME280;38258;51.148;14.068;2023-02-01T03:56:12;98010.84;;;2.09;100.00
52319;BME280;38258;51.148;14.068;2023-02-01T03:58:39;98018.56;;;2.18;100.00
52319;BME280;38258;51.148;14.068;2023-02-01T04:01:06;98026.31;;;2.20;100.00
52319;BME280;38258;51.148;14.068;2023-02-01T04:03:36;98014.28;;;2.17;100.00
52319;BME280;38258;51.148;14.068;2023-02-01T04:06:05;97986.75;;;1.99;100.00
52319;BME280;38258;51.148;14.068;2023-02-01T04:08:32;98014.28;;;2.19;100.00
52319;BME280;38258;51.148;14.068;2023-02-01T04:11:00;98016.84;;;2.22;100.00
52319;BME280;38258;51.148;14.068;2023-02-01T04:13:26;97979.91;;;2.01;100.00
52319;BME280;38258;51.148;14.068;2023-02-01T04:15:53;98009.97;;;2.24;100.00
52319;BME280;38258;51.148;14.068;2023-02-01T04:18:19;98010.00;;;2.22;100.00
52319;BME280;38258;51.148;14.068;2023-02-01T04:20:46;97991.91;;;2.19;100.00
52319;BME280;38258;51.148;14.068;2023-02-01T04:23:12;98002.22;;;2.19;100.00
52319;BME280;38258;51.148;14.068;2023-02-01T04:25:40;97988.47;;;2.17;100.00
52319;BME280;38258;51.148;14.068;2023-02-01T04:28:08;97966.13;;;1.96;100.00
52319;BME280;38258;51.148;14.068;2023-02-01T04:30:35;97955.81;;;2.02;100.00
52319;BME280;38258;51.148;14.068;2023-02-01T04:33:02;97970.44;;;2.11;100.00
52319;BME280;38258;51.148;14.068;2023-02-01T04:35:31;97975.56;;;2.20;100.00
52319;BME280;38258;51.148;14.068;2023-02-01T04:37:58;97984.19;;;2.13;100.00
52319;BME280;38258;51.148;14.068;2023-02-01T04:40:25;97974.72;;;2.20;100.00
52319;BME280;38258;51.148;14.068;2023-02-01T04:42:52;97986.75;;;2.29;100.00
52319;BME280;38258;51.148;14.068;2023-02-01T04:45:19;97980.72;;;2.22;100.00
52319;BME280;38258;51.148;14.068;2023-02-01T04:47:46;97936.91;;;1.95;100.00
52319;BME280;38258;51.148;14.068;2023-02-01T04:50:14;97966.97;;;2.15;100.00
52319;BME280;38258;51.148;14.068;2023-02-01T04:52:40;97975.56;;;2.23;100.00
52319;BME280;38258;51.148;14.068;2023-02-01T04:55:08;97978.16;;;2.22;100.00
52319;BME280;38258;51.148;14.068;2023-02-01T04:57:34;97973.88;;;2.22;100.00
52319;BME280;38258;51.148;14.068;2023-02-01T05:00:05;97935.19;;;1.94;100.00
52319;BME280;38258;51.148;14.068;2023-02-01T05:02:33;97935.19;;;2.01;100.00
52319;BME280;38258;51.148;14.068;2023-02-01T05:05:00;97937.75;;;1.99;100.00
52319;BME280;38258;51.148;14.068;2023-02-01T05:07:27;97926.56;;;1.92;100.00
52319;BME280;38258;51.148;14.068;2023-02-01T05:09:53;97960.09;;;2.16;100.00
52319;BME280;38258;51.148;14.068;2023-02-01T05:12:20;97969.56;;;2.17;100.00
52319;BME280;38258;51.148;14.068;2023-02-01T05:15:05;97925.72;;;1.95;100.00
52319;BME280;38258;51.148;14.068;2023-02-01T05:17:31;97956.66;;;2.20;100.00
52319;BME280;38258;51.148;14.068;2023-02-01T05:19:59;97946.34;;;2.09;100.00
52319;BME280;38258;51.148;14.068;2023-02-01T05:22:26;97957.53;;;2.16;100.00
52319;BME280;38258;51.148;14.068;2023-02-01T05:24:52;97916.25;;;1.97;100.00
52319;BME280;38258;51.148;14.068;2023-02-01T05:27:19;97905.97;;;1.95;100.00
52319;BME280;38258;51.148;14.068;2023-02-01T05:29:45;97942.03;;;2.14;100.00
52319;BME280;38258;51.148;14.068;2023-02-01T05:32:12;97916.25;;;2.03;100.00
52319;BME280;38258;51.148;14.068;2023-02-01T05:34:38;97883.63;;;1.87;100.00
52319;BME280;38258;51.148;14.068;2023-02-01T05:37:06;97931.69;;;2.17;100.00
52319;BME280;38258;51.148;14.068;2023-02-01T05:39:33;97877.59;;;1.88;100.00
52319;BME280;38258;51.148;14.068;2023-02-01T05:42:00;97926.56;;;2.19;100.00
52319;BME280;38258;51.148;14.068;2023-02-01T05:44:26;97922.22;;;2.19;100.00
52319;BME280;38258;51.148;14.068;2023-02-01T05:46:53;97834.66;;;1.69;100.00
52319;BME280;38258;51.148;14.068;2023-02-01T05:49:20;97735.09;;;1.05;100.00
52319;BME280;38258;51.148;14.068;2023-02-01T05:51:46;97796.88;;;1.48;100.00
52319;BME280;38258;51.148;14.068;2023-02-01T05:54:14;97774.53;;;1.33;100.00
52319;BME280;38258;51.148;14.068;2023-02-01T05:56:41;97871.56;;;1.82;100.00
52319;BME280;38258;51.148;14.068;2023-02-01T05:59:10;97921.34;;;2.28;100.00
52319;BME280;38258;51.148;14.068;2023-02-01T06:01:39;97826.91;;;1.68;100.00
52319;BME280;38258;51.148;14.068;2023-02-01T06:04:06;97888.72;;;1.99;100.00
52319;BME280;38258;51.148;14.068;2023-02-01T06:06:32;97837.22;;;1.60;100.00
52319;BME280;38258;51.148;14.068;2023-02-01T06:08:59;97876.72;;;1.89;100.00
52319;BME280;38258;51.148;14.068;2023-02-01T06:11:27;97836.34;;;1.72;100.00
52319;BME280;38258;51.148;14.068;2023-02-01T06:13:54;97893.91;;;2.01;100.00
52319;BME280;38258;51.148;14.068;2023-02-01T06:16:22;97784.00;;;1.17;100.00
52319;BME280;38258;51.148;14.068;2023-02-01T06:18:49;97823.50;;;1.35;100.00
52319;BME280;38258;51.148;14.068;2023-02-01T06:21:16;97887.03;;;1.82;100.00
52319;BME280;38258;51.148;14.068;2023-02-01T06:23:49;97699.91;;;0.45;100.00
52319;BME280;38258;51.148;14.068;2023-02-01T06:26:16;97779.72;;;0.91;100.00
52319;BME280;38258;51.148;14.068;2023-02-01T06:28:44;97919.75;;;1.59;100.00
52319;BME280;38258;51.148;14.068;2023-02-01T06:31:11;97837.25;;;1.09;100.00
52319;BME280;38258;51.148;14.068;2023-02-01T06:33:38;97924.88;;;1.60;100.00
52319;BME280;38258;51.148;14.068;2023-02-01T06:36:07;97796.00;;;0.75;100.00
52319;BME280;38258;51.148;14.068;2023-02-01T06:38:36;97905.13;;;1.45;100.00
52319;BME280;38258;51.148;14.068;2023-02-01T06:41:06;97740.16;;;0.35;100.00
52319;BME280;38258;51.148;14.068;2023-02-01T06:43:40;97810.63;;;0.96;100.00
52319;BME280;38258;51.148;14.068;2023-02-01T06:46:11;97894.78;;;1.34;100.00
52319;BME280;38258;51.148;14.068;2023-02-01T06:48:39;97700.72;;;0.37;100.00
52319;BME280;38258;51.148;14.068;2023-02-01T06:51:05;97905.97;;;1.61;100.00
52319;BME280;38258;51.148;14.068;2023-02-01T06:53:32;97758.22;;;0.70;100.00
52319;BME280;38258;51.148;14.068;2023-02-01T06:56:00;97886.19;;;1.60;100.00
52319;BME280;38258;51.148;14.068;2023-02-01T06:58:28;97892.22;;;1.76;100.00
52319;BME280;38258;51.148;14.068;2023-02-01T07:00:55;97764.25;;;1.15;100.00
52319;BME280;38258;51.148;14.068;2023-02-01T07:03:23;97897.34;;;1.93;100.00
52319;BME280;38258;51.148;14.068;2023-02-01T07:05:49;97808.91;;;1.41;100.00
52319;BME280;38258;51.148;14.068;2023-02-01T07:08:16;97892.19;;;1.92;100.00
52319;BME280;38258;51.148;14.068;2023-02-01T07:10:42;97894.81;;;1.81;100.00
52319;BME280;38258;51.148;14.068;2023-02-01T07:13:09;97812.34;;;1.31;100.00
52319;BME280;38258;51.148;14.068;2023-02-01T07:15:36;97687.03;;;0.66;100.00
52319;BME280;38258;51.148;14.068;2023-02-01T07:18:02;97745.38;;;1.00;100.00
52319;BME280;38258;51.148;14.068;2023-02-01T07:20:30;97795.16;;;1.15;100.00
52319;BME280;38258;51.148;14.068;2023-02-01T07:22:57;97872.47;;;1.67;100.00
52319;BME280;38258;51.148;14.068;2023-02-01T07:25:24;97895.66;;;1.78;100.00
52319;BME280;38258;51.148;14.068;2023-02-01T07:27:50;97863.88;;;1.64;100.00
52319;BME280;38258;51.148;14.068;2023-02-01T07:30:17;97742.81;;;0.92;100.00
52319;BME280;38258;51.148;14.068;2023-02-01T07:32:44;97875.88;;;1.68;100.00
52319;BME280;38258;51.148;14.068;2023-02-01T07:35:11;97807.19;;;1.31;100.00
52319;BME280;38258;51.148;14.068;2023-02-01T07:37:40;97828.66;;;1.44;100.00
52319;BME280;38258;51.148;14.068;2023-02-01T07:40:09;97895.66;;;1.63;100.00
52319;BME280;38258;51.148;14.068;2023-02-01T07:42:36;97780.56;;;0.70;100.00
52319;BME280;38258;51.148;14.068;2023-02-01T07:45:03;97848.41;;;1.12;100.00
52319;BME280;38258;51.148;14.068;2023-02-01T07:47:30;97716.13;;;0.28;100.00
52319;BME280;38258;51.148;14.068;2023-02-01T07:49:56;97729.00;;;0.22;100.00
52319;BME280;38258;51.148;14.068;2023-02-01T07:52:23;97665.50;;;-0.06;100.00
52319;BME280;38258;51.148;14.068;2023-02-01T07:54:51;97855.28;;;1.13;100.00
52319;BME280;38258;51.148;14.068;2023-02-01T07:57:19;97875.06;;;1.36;100.00
52319;BME280;38258;51.148;14.068;2023-02-01T07:59:45;97828.63;;;0.90;100.00
52319;BME280;38258;51.148;14.068;2023-02-01T08:02:26;97807.19;;;0.95;100.00
52319;BME280;38258;51.148;14.068;2023-02-01T08:04:53;97823.50;;;1.04;100.00
52319;BME280;38258;51.148;14.068;2023-02-01T08:07:20;97866.44;;;1.42;100.00
52319;BME280;38258;51.148;14.068;2023-02-01T08:09:47;97856.16;;;1.33;100.00
52319;BME280;38258;51.148;14.068;2023-02-01T08:12:15;97782.28;;;0.91;100.00
52319;BME280;38258;51.148;14.068;2023-02-01T08:14:42;97821.78;;;1.18;100.00
52319;BME280;38258;51.148;14.068;2023-02-01T08:17:08;97707.59;;;0.48;100.00
52319;BME280;38258;51.148;14.068;2023-02-01T08:19:35;97730.78;;;0.55;100.00
52319;BME280;38258;51.148;14.068;2023-02-01T08:22:02;97830.38;;;1.12;100.00
52319;BME280;38258;51.148;14.068;2023-02-01T08:24:32;97855.28;;;1.32;100.00
52319;BME280;38258;51.148;14.068;2023-02-01T08:27:00;97823.50;;;1.27;100.00
52319;BME280;38258;51.148;14.068;2023-02-01T08:29:28;97800.31;;;1.07;100.00
52319;BME280;38258;51.148;14.068;2023-02-01T08:31:55;97673.28;;;0.38;100.00
52319;BME280;38258;51.148;14.068;2023-02-01T08:34:22;97763.41;;;0.92;100.00
52319;BME280;38258;51.148;14.068;2023-02-01T08:36:49;97676.72;;;0.45;100.00
52319;BME280;38258;51.148;14.068;2023-02-01T08:39:17;97848.41;;;1.40;100.00
52319;BME280;38258;51.148;14.068;2023-02-01T08:41:43;97770.25;;;0.96;100.00
52319;BME280;38258;51.148;14.068;2023-02-01T08:44:33;97816.66;;;1.23;100.00
52319;BME280;38258;51.148;14.068;2023-02-01T08:47:00;97827.81;;;1.28;100.00
52319;BME280;38258;51.148;14.068;2023-02-01T08:49:27;97729.06;;;0.70;100.00
52319;BME280;38258;51.148;14.068;2023-02-01T08:51:53;97734.19;;;0.72;100.00
52319;BME280;38258;51.148;14.068;2023-02-01T08:54:20;97753.09;;;0.67;100.00
52319;BME280;38258;51.148;14.068;2023-02-01T08:56:47;97757.38;;;0.73;100.00
52319;BME280;38258;51.148;14.068;2023-02-01T08:59:14;97765.97;;;0.77;100.00
52319;BME280;38258;51.148;14.068;2023-02-01T09:01:42;97734.22;;;0.79;100.00
52319;BME280;38258;51.148;14.068;2023-02-01T09:04:08;97769.41;;;1.11;100.00
52319;BME280;38258;51.148;14.068;2023-02-01T09:06:35;97823.50;;;1.50;100.00
52319;BME280;38258;51.148;14.068;2023-02-01T09:09:02;97741.06;;;1.05;100.00
52319;BME280;38258;51.148;14.068;2023-02-01T09:11:28;97824.34;;;1.69;100.00
52319;BME280;38258;51.148;14.068;2023-02-01T09:13:55;97825.13;;;1.93;100.00
52319;BME280;38258;51.148;14.068;2023-02-01T09:16:22;97813.03;;;2.05;100.00
52319;BME280;38258;51.148;14.068;2023-02-01T09:18:50;97631.22;;;1.03;100.00
52319;BME280;38258;51.148;14.068;2023-02-01T09:21:16;97786.44;;;1.96;100.00
52319;BME280;38258;51.148;14.068;2023-02-01T09:23:43;97797.56;;;2.09;100.00
52319;BME280;38258;51.148;14.068;2023-02-01T09:26:10;97759.81;;;1.94;100.00
52319;BME280;38258;51.148;14.068;2023-02-01T09:28:37;97738.34;;;1.77;100.00
52319;BME280;38258;51.148;14.068;2023-02-01T09:31:04;97811.25;;;2.27;100.00
52319;BME280;38258;51.148;14.068;2023-02-01T09:33:30;97756.31;;;2.00;100.00
52319;BME280;38258;51.148;14.068;2023-02-01T09:36:00;97583.09;;;1.17;100.00
52319;BME280;38258;51.148;14.068;2023-02-01T09:38:27;97722.81;;;1.98;100.00
52319;BME280;38258;51.148;14.068;2023-02-01T09:40:55;97770.81;;;2.31;100.00
52319;BME280;38258;51.148;14.068;2023-02-01T09:43:32;97674.75;;;1.76;100.00
52319;BME280;38258;51.148;14.068;2023-02-01T09:46:17;97568.53;;;1.08;100.00
52319;BME280;38258;51.148;14.068;2023-02-01T09:48:45;97776.78;;;2.36;100.00
52319;BME280;38258;51.148;14.068;2023-02-01T09:51:18;97682.50;;;1.76;100.00
52319;BME280;38258;51.148;14.068;2023-02-01T09:53:57;97808.69;;;2.19;100.00
52319;BME280;38258;51.148;14.068;2023-02-01T09:56:29;97795.03;;;1.89;100.00
52319;BME280;38258;51.148;14.068;2023-02-01T09:59:05;97831.19;;;1.77;100.00
52319;BME280;38258;51.148;14.068;2023-02-01T10:01:37;97685.31;;;0.90;100.00
52319;BME280;38258;51.148;14.068;2023-02-01T10:04:06;97802.91;;;1.39;100.00
52319;BME280;38258;51.148;14.068;2023-02-01T10:06:44;97681.03;;;0.46;100.00
52319;BME280;38258;51.148;14.068;2023-02-01T10:09:29;97741.06;;;0.77;100.00
52319;BME280;38258;51.148;14.068;2023-02-01T10:12:16;97827.81;;;1.12;100.00
52319;BME280;38258;51.148;14.068;2023-02-01T10:15:00;97850.13;;;1.06;100.00
52319;BME280;38258;51.148;14.068;2023-02-01T10:17:49;97617.44;;;-0.32;100.00
52319;BME280;38258;51.148;14.068;2023-02-01T10:20:25;97819.19;;;0.78;100.00
52319;BME280;38258;51.148;14.068;2023-02-01T10:23:02;97830.38;;;0.97;100.00
52319;BME280;38258;51.148;14.068;2023-02-01T10:25:36;97819.19;;;0.84;100.00
52319;BME280;38258;51.148;14.068;2023-02-01T10:28:04;97854.41;;;1.11;100.00
52319;BME280;38258;51.148;14.068;2023-02-01T10:30:37;97641.50;;;-0.12;100.00
52319;BME280;38258;51.148;14.068;2023-02-01T10:33:07;97852.69;;;1.13;100.00
52319;BME280;38258;51.148;14.068;2023-02-01T10:35:39;97663.78;;;0.06;100.00
52319;BME280;38258;51.148;14.068;2023-02-01T10:38:14;97624.34;;;-0.09;100.00
52319;BME280;38258;51.148;14.068;2023-02-01T10:40:43;97826.06;;;0.97;100.00
52319;BME280;38258;51.148;14.068;2023-02-01T10:43:10;97718.72;;;0.37;100.00
52319;BME280;38258;51.148;14.068;2023-02-01T10:45:37;97707.59;;;0.29;100.00
52319;BME280;38258;51.148;14.068;2023-02-01T10:48:05;97761.66;;;0.69;100.00
52319;BME280;38258;51.148;14.068;2023-02-01T10:50:37;97753.94;;;0.63;100.00
52319;BME280;38258;51.148;14.068;2023-02-01T10:53:13;97687.84;;;0.19;100.00
52319;BME280;38258;51.148;14.068;2023-02-01T10:55:47;97840.66;;;1.26;100.00
52319;BME280;38258;51.148;14.068;2023-02-01T10:58:16;97746.22;;;0.59;100.00
52319;BME280;38258;51.148;14.068;2023-02-01T11:00:46;97844.97;;;1.32;100.00
52319;BME280;38258;51.148;14.068;2023-02-01T11:03:36;97849.28;;;1.32;100.00
52319;BME280;38258;51.148;14.068;2023-02-01T11:06:10;97860.44;;;1.48;100.00
52319;BME280;38258;51.148;14.068;2023-02-01T11:08:45;97872.47;;;1.53;100.00
52319;BME280;38258;51.148;14.068;2023-02-01T11:11:12;97880.19;;;1.53;100.00
52319;BME280;38258;51.148;14.068;2023-02-01T11:13:39;97783.13;;;1.07;100.00
52319;BME280;38258;51.148;14.068;2023-02-01T11:16:11;97868.16;;;1.55;100.00
52319;BME280;38258;51.148;14.068;2023-02-01T11:18:38;97884.50;;;1.64;100.00
52319;BME280;38258;51.148;14.068;2023-02-01T11:21:06;97872.47;;;1.55;100.00
52319;BME280;38258;51.148;14.068;2023-02-01T11:23:33;97715.34;;;0.74;100.00
52319;BME280;38258;51.148;14.068;2023-02-01T11:26:10;97745.38;;;1.05;100.00
52319;BME280;38258;51.148;14.068;2023-02-01T11:28:40;97823.50;;;1.52;100.00
52319;BME280;38258;51.148;14.068;2023-02-01T11:31:12;97733.38;;;0.96;100.00
52319;BME280;38258;51.148;14.068;2023-02-01T11:33:46;97873.31;;;1.77;100.00
52319;BME280;38258;51.148;14.068;2023-02-01T11:36:16;97675.03;;;0.59;100.00
52319;BME280;38258;51.148;14.068;2023-02-01T11:38:46;97856.13;;;1.64;100.00
52319;BME280;38258;51.148;14.068;2023-02-01T11:41:23;97758.25;;;1.12;100.00
52319;BME280;38258;51.148;14.068;2023-02-01T11:43:52;97748.78;;;1.33;100.00
52319;BME280;38258;51.148;14.068;2023-02-01T11:46:22;97826.84;;;1.93;100.00
52319;BME280;38258;51.148;14.068;2023-02-01T11:48:51;97879.28;;;2.07;100.00
52319;BME280;38258;51.148;14.068;2023-02-01T11:51:32;97879.28;;;1.95;100.00
52319;BME280;38258;51.148;14.068;2023-02-01T11:54:17;97877.59;;;1.61;100.00
52319;BME280;38258;51.148;14.068;2023-02-01T11:56:57;97846.69;;;1.60;100.00
52319;BME280;38258;51.148;14.068;2023-02-01T11:59:45;97843.22;;;1.84;100.00
52319;BME280;38258;51.148;14.068;2023-02-01T12:02:37;97842.31;;;2.02;100.00
52319;BME280;38258;51.148;14.068;2023-02-01T12:05:27;97844.88;;;2.10;100.00
52319;BME280;38258;51.148;14.068;2023-02-01T12:08:05;97856.88;;;2.08;100.00
52319;BME280;38258;51.148;14.068;2023-02-01T12:10:41;97862.13;;;1.86;100.00
52319;BME280;38258;51.148;14.068;2023-02-01T12:13:24;97870.75;;;1.66;100.00
52319;BME280;38258;51.148;14.068;2023-02-01T12:16:02;97866.44;;;1.44;100.00
52319;BME280;38258;51.148;14.068;2023-02-01T12:18:54;97870.72;;;1.20;100.00
52319;BME280;38258;51.148;14.068;2023-02-01T12:21:38;97839.81;;;1.03;100.00
52319;BME280;38258;51.148;14.068;2023-02-01T12:24:32;97855.25;;;0.82;100.00
52319;BME280;38258;51.148;14.068;2023-02-01T12:27:14;97844.91;;;0.70;100.00
52319;BME280;38258;51.148;14.068;2023-02-01T12:29:58;97852.59;;;0.64;100.00
52319;BME280;38258;51.148;14.068;2023-02-01T12:32:45;97831.06;;;0.27;100.00
52319;BME280;38258;51.148;14.068;2023-02-01T12:35:41;97819.09;;;0.39;100.00
52319;BME280;38258;51.148;14.068;2023-02-01T12:41:08;97834.56;;;0.54;100.00
52319;BME280;38258;51.148;14.068;2023-02-01T12:43:43;97832.06;;;0.84;100.00
52319;BME280;38258;51.148;14.068;2023-02-01T12:46:17;97804.56;;;0.75;100.00
52319;BME280;38258;51.148;14.068;2023-02-01T12:48:54;97820.94;;;1.07;100.00
52319;BME280;38258;51.148;14.068;2023-02-01T12:51:26;97814.94;;;1.30;100.00
52319;BME280;38258;51.148;14.068;2023-02-01T12:53:55;97816.66;;;1.31;100.00
52319;BME280;38258;51.148;14.068;2023-02-01T12:56:29;97808.91;;;1.38;100.00
52319;BME280;38258;51.148;14.068;2023-02-01T12:58:59;97749.66;;;1.12;100.00
52319;BME280;38258;51.148;14.068;2023-02-01T13:01:34;97808.00;;;1.57;100.00
52319;BME280;38258;51.148;14.068;2023-02-01T13:04:02;97810.56;;;1.71;100.00
52319;BME280;38258;51.148;14.068;2023-02-01T13:06:34;97805.41;;;1.75;100.00
52319;BME280;38258;51.148;14.068;2023-02-01T13:09:09;97812.25;;;1.78;100.00
52319;BME280;38258;51.148;14.068;2023-02-01T13:11:43;97815.69;;;1.88;100.00
52319;BME280;38258;51.148;14.068;2023-02-01T13:14:19;97805.34;;;1.97;100.00